createdAt,value
2018-06-05T11:31:14.867Z,31.50
2018-06-05T11:43:36.678Z,31.70
2018-06-05T12:05:51.665Z,31.70
2018-06-05T12:15:45.117Z,32.70
2018-06-05T12:28:06.762Z,33.20
2018-06-05T12:57:48.236Z,30.90
2018-06-05T13:02:45.128Z,30.80
2018-06-05T13:57:08.361Z,33.80
2018-06-05T14:04:33.548Z,32.00
2018-06-05T14:14:27.009Z,31.00
2018-06-05T14:21:52.055Z,31.90
2018-06-05T14:41:38.918Z,32.60
2018-06-05T14:56:28.858Z,32.60
2018-06-05T15:06:22.194Z,33.60
2018-06-05T15:26:08.997Z,33.80
2018-06-05T15:36:02.495Z,31.70
2018-06-05T15:45:56.106Z,30.50
2018-06-05T15:48:25.488Z,30.30
2018-06-05T15:50:54.076Z,29.90
2018-06-05T15:53:22.712Z,29.50
2018-06-05T15:55:51.297Z,29.50
2018-06-05T15:58:19.893Z,29.30
2018-06-05T16:00:48.537Z,29.20
2018-06-05T16:08:13.852Z,29.00
2018-06-05T16:10:42.943Z,28.90
2018-06-05T16:15:40.059Z,28.90
2018-06-05T16:18:08.682Z,28.80
2018-06-05T16:20:37.299Z,28.80
2018-06-05T16:23:06.014Z,28.70
2018-06-05T16:25:34.647Z,28.60
2018-06-05T16:28:03.502Z,28.50
2018-06-05T16:30:32.186Z,28.50
2018-06-05T16:35:29.052Z,28.60
2018-06-05T16:37:57.647Z,28.60
2018-06-05T16:40:26.661Z,28.60
2018-06-05T17:29:37.034Z,28.20
2018-06-05T17:32:05.665Z,28.20
2018-06-05T17:34:37.978Z,28.30
2018-06-05T17:37:06.660Z,28.40
2018-06-05T17:39:35.260Z,28.40
2018-06-05T17:42:03.935Z,28.50
2018-06-05T17:44:32.573Z,28.60
2018-06-05T17:47:01.147Z,28.50
2018-06-05T17:49:29.845Z,28.50
2018-06-05T17:51:58.426Z,28.40
2018-06-05T17:54:27.003Z,28.50
2018-06-05T17:56:55.600Z,28.60
2018-06-05T17:59:24.255Z,28.70
2018-06-05T18:01:52.887Z,28.60
2018-06-05T18:04:21.516Z,28.60
2018-06-05T18:06:50.115Z,28.60
2018-06-05T18:09:18.728Z,28.60
2018-06-05T18:11:47.281Z,28.60
2018-06-05T18:14:16.012Z,28.70
2018-06-05T18:16:44.549Z,28.80
2018-06-05T18:19:13.143Z,28.90
2018-06-05T18:21:41.681Z,28.90
2018-06-05T18:26:38.711Z,29.10
2018-06-05T18:29:07.358Z,29.00
2018-06-05T18:31:35.946Z,28.90
2018-06-05T18:34:04.558Z,28.80
2018-06-05T18:36:33.198Z,28.80
2018-06-05T18:39:01.780Z,28.70
2018-06-05T18:41:30.437Z,28.60
2018-06-05T18:43:59.067Z,28.50
2018-06-05T18:46:27.715Z,28.50
2018-06-05T18:51:24.717Z,28.40
2018-06-05T18:53:53.364Z,28.30
2018-06-05T18:56:22.830Z,28.20
2018-06-05T18:58:51.477Z,27.90
2018-06-05T19:01:20.096Z,27.90
2018-06-05T19:03:48.665Z,27.70
2018-06-05T19:06:17.233Z,27.60
2018-06-05T19:08:46.654Z,27.60
2018-06-05T19:11:15.378Z,27.40
2018-06-05T19:16:12.313Z,27.30
2018-06-05T19:18:40.947Z,27.20
2018-06-05T19:21:09.550Z,27.10
2018-06-05T19:23:38.141Z,27.00
2018-06-05T19:26:06.816Z,27.00
2018-06-05T19:28:35.421Z,26.90
2018-06-05T19:31:04.105Z,26.80
2018-06-05T19:33:32.768Z,26.70
2018-06-05T19:36:01.440Z,26.50
2018-06-05T19:38:30.066Z,26.40
2018-06-05T19:40:58.760Z,26.20
2018-06-05T19:43:27.340Z,26.20
2018-06-05T19:45:56.002Z,26.00
